createdAt,value
2018-05-31T00:00:25.978Z,42.28
2018-05-31T00:01:26.001Z,42.37
2018-05-31T00:02:26.026Z,42.37
2018-05-31T00:03:26.033Z,42.37
2018-05-31T00:04:25.796Z,42.28
2018-05-31T00:05:25.813Z,42.57
2018-05-31T00:06:25.841Z,42.47
2018-05-31T00:07:25.872Z,42.57
2018-05-31T00:08:26.191Z,42.57
2018-05-31T00:09:26.194Z,42.57
2018-05-31T00:10:26.234Z,42.47
2018-05-31T00:11:26.239Z,42.57
2018-05-31T00:12:26.262Z,42.57
2018-05-31T00:13:26.791Z,42.57
2018-05-31T00:14:26.322Z,42.66
2018-05-31T00:15:26.342Z,42.66
2018-05-31T00:16:26.126Z,42.57
2018-05-31T00:17:26.123Z,42.74
2018-05-31T00:18:26.156Z,42.74
2018-05-31T00:19:26.173Z,42.66
2018-05-31T00:20:26.500Z,42.86
2018-05-31T00:21:26.516Z,43.32
2018-05-31T00:22:27.008Z,42.45
2018-05-31T00:23:26.552Z,43.23
2018-05-31T00:24:26.587Z,43.03
2018-05-31T00:25:26.609Z,42.83
2018-05-31T00:26:26.660Z,42.83
2018-05-31T00:27:26.388Z,42.83
2018-05-31T00:28:26.412Z,42.93
2018-05-31T00:29:26.741Z,43.13
2018-05-31T00:30:26.731Z,42.93
2018-05-31T00:31:27.003Z,42.83
2018-05-31T00:32:26.797Z,42.93
2018-05-31T00:33:26.844Z,43.03
2018-05-31T00:34:26.858Z,43.13
2018-05-31T00:35:26.904Z,43.13
2018-05-31T00:36:26.614Z,43.03
2018-05-31T00:37:26.923Z,43.61
2018-05-31T00:38:26.950Z,43.41
2018-05-31T00:39:26.988Z,43.23
2018-05-31T00:40:27.016Z,43.61
2018-05-31T00:41:26.752Z,43.1
2018-05-31T00:42:27.049Z,43.2
2018-05-31T00:43:26.800Z,43.59
2018-05-31T00:44:26.828Z,43.49
2018-05-31T00:45:27.140Z,43.4
2018-05-31T00:46:26.884Z,43.49
2018-05-31T00:47:27.182Z,43.49
2018-05-31T00:48:27.224Z,43.2
2018-05-31T00:49:27.225Z,43.59
2018-05-31T00:50:27.818Z,43.2
2018-05-31T00:51:27.344Z,43.4
2018-05-31T00:52:27.322Z,43.68
2018-05-31T00:53:27.338Z,43.49
2018-05-31T00:54:27.087Z,43.59
2018-05-31T00:55:27.398Z,43.59
2018-05-31T00:56:27.432Z,43.4
2018-05-31T00:57:27.431Z,43.59
2018-05-31T00:58:27.477Z,43.78
2018-05-31T00:59:27.902Z,43.59
2018-05-31T01:00:27.535Z,43.68
2018-05-31T01:01:27.553Z,43.78
2018-05-31T01:02:27.578Z,44.26
2018-05-31T01:03:27.610Z,44.17
2018-05-31T01:04:27.670Z,43.88
2018-05-31T01:05:27.652Z,44.07
2018-05-31T01:06:27.675Z,43.98
2018-05-31T01:07:27.716Z,44.05
2018-05-31T01:08:28.088Z,43.88
2018-05-31T01:09:27.739Z,43.88
2018-05-31T01:10:27.769Z,43.98
2018-05-31T01:11:27.787Z,44.15
2018-05-31T01:12:27.833Z,44.07
2018-05-31T01:13:27.859Z,43.85
2018-05-31T01:14:27.595Z,44.15
2018-05-31T01:15:27.887Z,44.34
2018-05-31T01:16:27.938Z,44.24
2018-05-31T01:17:27.966Z,44.34
2018-05-31T01:18:28.007Z,44.24
2018-05-31T01:19:27.720Z,44.24
2018-05-31T01:20:28.039Z,44.24
2018-05-31T01:21:28.074Z,44.24
2018-05-31T01:22:28.068Z,44.34
2018-05-31T01:23:27.819Z,44.05
2018-05-31T01:24:27.844Z,44.63
2018-05-31T01:25:27.887Z,44.63
2018-05-31T01:26:28.170Z,44.63
2018-05-31T01:27:28.656Z,44.34
2018-05-31T01:28:28.222Z,44.24
2018-05-31T01:29:27.972Z,44.53
2018-05-31T01:30:28.287Z,44.73
2018-05-31T01:31:28.030Z,44.73
2018-05-31T01:32:28.333Z,44.43
2018-05-31T01:33:28.366Z,44.63
2018-05-31T01:34:28.370Z,44.92
2018-05-31T01:35:28.129Z,44.92
2018-05-31T01:36:28.156Z,44.92
2018-05-31T01:37:28.463Z,45.01
2018-05-31T01:38:28.483Z,45.01
2018-05-31T01:39:28.503Z,45.11
2018-05-31T01:40:28.540Z,44.7
2018-05-31T01:41:28.281Z,45.38
2018-05-31T01:42:28.605Z,45.18
2018-05-31T01:43:28.623Z,45.28
2018-05-31T01:44:28.361Z,45.28
2018-05-31T01:45:28.398Z,45.01
2018-05-31T01:46:28.679Z,45.18
2018-05-31T01:47:28.714Z,45.18
2018-05-31T01:48:28.749Z,45.09
2018-05-31T01:49:28.793Z,45.09
2018-05-31T01:50:28.781Z,45.28
2018-05-31T01:51:28.828Z,45.48
2018-05-31T01:52:28.827Z,45.28
2018-05-31T01:53:28.881Z,45.48
2018-05-31T01:54:29.289Z,45.57
2018-05-31T01:55:28.998Z,45.48
2018-05-31T01:56:28.934Z,45.57
2018-05-31T01:57:28.977Z,45.57
2018-05-31T01:58:29.008Z,45.57
2018-05-31T01:59:28.997Z,45.67
2018-05-31T02:00:29.032Z,45.57
2018-05-31T02:01:29.056Z,45.67
2018-05-31T02:02:29.095Z,45.57
2018-05-31T02:03:29.105Z,45.67
2018-05-31T02:04:28.861Z,45.67
2018-05-31T02:05:29.154Z,45.67
2018-05-31T02:06:29.192Z,45.48
2018-05-31T02:07:29.205Z,45.67
2018-05-31T02:08:29.233Z,45.76
2018-05-31T02:09:29.253Z,45.76
2018-05-31T02:10:29.396Z,45.57
2018-05-31T02:11:29.034Z,45.76
2018-05-31T02:12:29.347Z,45.76
2018-05-31T02:13:29.083Z,45.76
2018-05-31T02:14:29.118Z,45.84
2018-05-31T02:15:29.124Z,45.75
2018-05-31T02:16:29.448Z,45.86
2018-05-31T02:17:29.460Z,45.65
2018-05-31T02:18:29.477Z,45.84
2018-05-31T02:19:29.232Z,45.75
2018-05-31T02:20:29.548Z,45.84
2018-05-31T02:21:29.576Z,45.94
2018-05-31T02:22:30.115Z,46.03
2018-05-31T02:23:29.330Z,45.84
2018-05-31T02:24:29.647Z,45.94
2018-05-31T02:25:29.865Z,46.03
2018-05-31T02:26:29.702Z,46.03
2018-05-31T02:27:29.706Z,46.33
2018-05-31T02:28:29.744Z,46.13
2018-05-31T02:29:29.778Z,46.13
2018-05-31T02:30:29.504Z,46.23
2018-05-31T02:31:29.536Z,46.33
2018-05-31T02:32:29.821Z,46.33
2018-05-31T02:33:29.847Z,46.33
2018-05-31T02:34:29.870Z,46.23
2018-05-31T02:35:29.910Z,46.42
2018-05-31T02:36:29.645Z,46.51
2018-05-31T02:37:29.972Z,46.71
2018-05-31T02:38:29.967Z,46.71
2018-05-31T02:39:30.022Z,46.61
2018-05-31T02:40:30.493Z,46.42
2018-05-31T02:41:29.769Z,46.61
2018-05-31T02:42:29.817Z,46.42
2018-05-31T02:43:29.820Z,46.61
2018-05-31T02:44:29.849Z,46.61
2018-05-31T02:45:30.147Z,46.51
2018-05-31T02:46:30.179Z,46.61
2018-05-31T02:47:30.212Z,46.71
2018-05-31T02:48:30.227Z,46.71
2018-05-31T02:49:29.967Z,46.71
2018-05-31T02:50:30.282Z,47.09
2018-05-31T02:51:30.295Z,47.09
2018-05-31T02:52:30.341Z,47.19
2018-05-31T02:53:30.069Z,46.81
2018-05-31T02:54:30.103Z,46.78
2018-05-31T02:55:30.400Z,46.97
2018-05-31T02:56:30.149Z,47.17
2018-05-31T02:57:30.449Z,46.97
2018-05-31T02:58:31.063Z,46.69
2018-05-31T02:59:30.490Z,47.07
2018-05-31T03:00:30.511Z,47.07
2018-05-31T03:01:30.574Z,47.07
2018-05-31T03:02:30.293Z,46.88
2018-05-31T03:03:30.610Z,47
2018-05-31T03:04:30.721Z,47.17
2018-05-31T03:05:30.647Z,47.17
2018-05-31T03:06:30.401Z,47.17
2018-05-31T03:07:31.127Z,47.45
2018-05-31T03:08:30.715Z,47.36
2018-05-31T03:09:30.733Z,47.45
2018-05-31T03:10:30.489Z,47.36
2018-05-31T03:11:30.828Z,47.65
2018-05-31T03:12:30.807Z,47.45
2018-05-31T03:13:30.855Z,47.65
2018-05-31T03:14:30.854Z,47.55
2018-05-31T03:15:30.914Z,47.45
2018-05-31T03:16:31.343Z,47.55
2018-05-31T03:17:30.947Z,47.45
2018-05-31T03:18:30.966Z,47.65
2018-05-31T03:19:30.984Z,47.36
2018-05-31T03:20:31.014Z,47.75
2018-05-31T03:21:31.035Z,47.85
2018-05-31T03:22:31.050Z,47.45
2018-05-31T03:23:31.087Z,47.65
2018-05-31T03:24:31.121Z,47.45
2018-05-31T03:25:31.467Z,47.27
2018-05-31T03:26:31.165Z,47.94
2018-05-31T03:27:30.912Z,47.85
2018-05-31T03:28:31.203Z,47.75
2018-05-31T03:29:30.964Z,47.65
2018-05-31T03:30:30.975Z,47.75
2018-05-31T03:31:31.288Z,48.03
2018-05-31T03:32:31.031Z,48.03
2018-05-31T03:33:31.341Z,47.94
2018-05-31T03:34:31.062Z,47.94
2018-05-31T03:35:31.090Z,47.27
2018-05-31T03:36:31.403Z,47.75
2018-05-31T03:37:31.434Z,47.85
2018-05-31T03:38:31.462Z,47.65
2018-05-31T03:39:31.195Z,47.65
2018-05-31T03:40:31.219Z,47.94
2018-05-31T03:41:31.556Z,48.13
2018-05-31T03:42:31.557Z,48.03
2018-05-31T03:43:31.966Z,48.13
2018-05-31T03:44:31.613Z,48.13
2018-05-31T03:45:31.344Z,48.13
2018-05-31T03:46:31.357Z,47.94
2018-05-31T03:47:31.767Z,48.33
2018-05-31T03:48:31.688Z,48.23
2018-05-31T03:49:31.443Z,47.94
2018-05-31T03:50:31.775Z,47.94
2018-05-31T03:51:31.794Z,47.85
2018-05-31T03:52:31.510Z,48.03
2018-05-31T03:53:31.803Z,47.94
2018-05-31T03:54:31.848Z,47.94
2018-05-31T03:55:31.594Z,48.13
2018-05-31T03:56:31.901Z,47.94
2018-05-31T03:57:31.929Z,48.23
2018-05-31T03:58:31.651Z,48.33
2018-05-31T03:59:31.794Z,48.52
2018-05-31T04:00:31.999Z,48.33
2018-05-31T04:01:32.606Z,48.33
2018-05-31T04:02:32.029Z,48.33
2018-05-31T04:03:32.082Z,48.33
2018-05-31T04:04:31.810Z,48.23
2018-05-31T04:05:32.121Z,48.13
2018-05-31T04:06:31.844Z,48.13
2018-05-31T04:07:32.159Z,48.13
2018-05-31T04:08:32.176Z,48.42
2018-05-31T04:09:31.930Z,48.23
2018-05-31T04:10:32.637Z,48.42
2018-05-31T04:11:32.320Z,48.42
2018-05-31T04:12:31.991Z,47.94
2018-05-31T04:13:32.284Z,47.85
2018-05-31T04:14:32.304Z,48.42
2018-05-31T04:15:32.363Z,48.33
2018-05-31T04:16:32.363Z,48.33
2018-05-31T04:17:32.407Z,48.23
2018-05-31T04:18:32.128Z,48.42
2018-05-31T04:19:32.878Z,48.42
2018-05-31T04:20:32.473Z,48.42
2018-05-31T04:21:32.476Z,48.33
2018-05-31T04:22:32.527Z,48.42
2018-05-31T04:23:32.540Z,48.42
2018-05-31T04:24:32.573Z,48.33
2018-05-31T04:25:32.318Z,48.33
2018-05-31T04:26:32.346Z,48.42
2018-05-31T04:27:32.630Z,48.42
2018-05-31T04:28:33.088Z,48.33
2018-05-31T04:29:32.687Z,48.23
2018-05-31T04:30:32.708Z,48.23
2018-05-31T04:31:32.744Z,48.42
2018-05-31T04:32:32.760Z,48.81
2018-05-31T04:33:32.844Z,48.81
2018-05-31T04:34:32.816Z,48.9
2018-05-31T04:35:32.833Z,48.71
2018-05-31T04:36:32.848Z,48.61
2018-05-31T04:37:33.250Z,48.03
2018-05-31T04:38:32.915Z,48.61
2018-05-31T04:39:32.934Z,48.61
2018-05-31T04:40:32.961Z,48.33
2018-05-31T04:41:32.979Z,48.61
2018-05-31T04:42:33.111Z,48.13
2018-05-31T04:43:33.047Z,48.61
2018-05-31T04:44:33.037Z,48.61
2018-05-31T04:45:33.072Z,48.61
2018-05-31T04:46:33.621Z,48.42
2018-05-31T04:47:33.130Z,48.42
2018-05-31T04:48:33.153Z,48.71
2018-05-31T04:49:33.150Z,48.61
2018-05-31T04:50:32.904Z,48.61
2018-05-31T04:51:32.940Z,48.52
2018-05-31T04:52:33.248Z,49
2018-05-31T04:53:33.013Z,49
2018-05-31T04:54:33.017Z,48.81
2018-05-31T04:55:33.692Z,49.1
2018-05-31T04:56:33.061Z,48.9
2018-05-31T04:57:33.401Z,48.61
2018-05-31T04:58:33.391Z,48.9
2018-05-31T04:59:33.131Z,49
2018-05-31T05:00:33.437Z,48.71
2018-05-31T05:01:33.179Z,48.61
2018-05-31T05:02:33.201Z,49.58
2018-05-31T05:03:33.484Z,49.29
2018-05-31T05:04:33.902Z,49.39
2018-05-31T05:05:33.561Z,49.1
2018-05-31T05:06:33.583Z,49.1
2018-05-31T05:07:33.648Z,49.1
2018-05-31T05:08:33.608Z,49.19
2018-05-31T05:09:33.657Z,49.77
2018-05-31T05:10:33.661Z,49.19
2018-05-31T05:11:33.712Z,49.39
2018-05-31T05:12:33.727Z,49.58
2018-05-31T05:13:34.055Z,49.87
2018-05-31T05:14:33.493Z,49.29
2018-05-31T05:15:33.508Z,49.19
2018-05-31T05:16:33.804Z,49.1
2018-05-31T05:17:33.835Z,49.58
2018-05-31T05:18:33.875Z,49.39
2018-05-31T05:19:33.604Z,49.58
2018-05-31T05:20:33.628Z,49.48
2018-05-31T05:21:33.668Z,49.48
2018-05-31T05:22:33.673Z,49.48
2018-05-31T05:23:33.980Z,49.58
2018-05-31T05:24:34.031Z,49.58
2018-05-31T05:25:33.760Z,49.48
2018-05-31T05:26:34.207Z,49.41
2018-05-31T05:27:34.084Z,49.77
2018-05-31T05:28:34.097Z,49.58
2018-05-31T05:29:33.854Z,49.77
2018-05-31T05:30:34.159Z,49.68
2018-05-31T05:31:34.597Z,49.41
2018-05-31T05:32:34.308Z,49.39
2018-05-31T05:33:34.229Z,49.68
2018-05-31T05:34:34.246Z,49.48
2018-05-31T05:35:34.290Z,49.68
2018-05-31T05:36:34.305Z,49.68
2018-05-31T05:37:34.319Z,49.77
2018-05-31T05:38:34.338Z,50.64
2018-05-31T05:39:34.100Z,49.68
2018-05-31T05:40:34.761Z,50.76
2018-05-31T05:41:34.410Z,50.09
2018-05-31T05:42:34.160Z,49.6
2018-05-31T05:43:34.487Z,50.09
2018-05-31T05:44:34.204Z,50.47
2018-05-31T05:45:34.240Z,50.28
2018-05-31T05:46:34.523Z,50.09
2018-05-31T05:47:34.286Z,50.38
2018-05-31T05:48:34.306Z,51.25
2018-05-31T05:49:34.332Z,50.76
2018-05-31T05:50:34.646Z,51.15
2018-05-31T05:51:34.666Z,51.05
2018-05-31T05:52:34.687Z,51.05
2018-05-31T05:53:34.422Z,50.38
2018-05-31T05:54:34.752Z,50.76
2018-05-31T05:55:34.777Z,51.34
2018-05-31T05:56:34.902Z,51.34
2018-05-31T05:57:34.812Z,51.34
2018-05-31T05:58:35.186Z,51.25
2018-05-31T05:59:34.858Z,51.15
2018-05-31T06:00:34.930Z,51.34
2018-05-31T06:01:34.909Z,51.34
2018-05-31T06:02:34.917Z,51.05
2018-05-31T06:03:34.678Z,51.34
2018-05-31T06:04:34.690Z,51.15
2018-05-31T06:05:35.007Z,51.63
2018-05-31T06:06:35.012Z,51.73
2018-05-31T06:07:35.490Z,52.01
2018-05-31T06:08:35.075Z,52.14
2018-05-31T06:09:35.096Z,52.43
2018-05-31T06:10:34.849Z,52.21
2018-05-31T06:11:35.147Z,52.23
2018-05-31T06:12:35.181Z,52.33
2018-05-31T06:13:34.907Z,52.33
2018-05-31T06:14:35.203Z,52.33
2018-05-31T06:15:35.364Z,51.95
2018-05-31T06:16:35.796Z,51.92
2018-05-31T06:17:35.301Z,51.95
2018-05-31T06:18:35.328Z,51.85
2018-05-31T06:19:35.338Z,52.23
2018-05-31T06:20:35.093Z,51.95
2018-05-31T06:21:35.396Z,52.14
2018-05-31T06:22:35.406Z,52.14
2018-05-31T06:23:35.451Z,51.95
2018-05-31T06:24:35.543Z,52.14
2018-05-31T06:25:35.998Z,51.85
2018-05-31T06:26:35.596Z,51.85
2018-05-31T06:27:35.532Z,51.46
2018-05-31T06:28:35.278Z,50.98
2018-05-31T06:29:35.596Z,51.27
2018-05-31T06:30:35.834Z,51.56
2018-05-31T06:31:35.617Z,51.65
2018-05-31T06:32:35.370Z,51.46
2018-05-31T06:33:35.805Z,51.37
2018-05-31T06:34:35.695Z,51.07
2018-05-31T06:35:35.724Z,50.91
2018-05-31T06:36:35.750Z,50.91
2018-05-31T06:37:35.759Z,50.62
2018-05-31T06:38:35.517Z,51.1
2018-05-31T06:39:35.820Z,50.81
2018-05-31T06:40:35.846Z,50.62
2018-05-31T06:41:35.593Z,50.23
2018-05-31T06:42:35.891Z,50.43
2018-05-31T06:43:35.957Z,50.52
2018-05-31T06:44:35.939Z,50.52
2018-05-31T06:45:35.689Z,50.62
2018-05-31T06:46:35.712Z,50.62
2018-05-31T06:47:36.021Z,50.43
2018-05-31T06:48:36.028Z,50.52
2018-05-31T06:49:35.790Z,50.52
2018-05-31T06:50:36.097Z,50.23
2018-05-31T06:51:36.117Z,51.1
2018-05-31T06:52:36.154Z,50.91
2018-05-31T06:53:36.142Z,51.32
2018-05-31T06:54:35.921Z,51.23
2018-05-31T06:55:36.219Z,51.71
2018-05-31T06:56:36.229Z,51.32
2018-05-31T06:57:36.249Z,50.93
2018-05-31T06:58:36.297Z,50.93
2018-05-31T06:59:36.296Z,51.42
2018-05-31T07:00:36.330Z,51.71
2018-05-31T07:01:36.358Z,51.61
2018-05-31T07:02:36.381Z,51.9
2018-05-31T07:03:36.138Z,51.81
2018-05-31T07:04:36.429Z,52.19
2018-05-31T07:05:36.443Z,52.12
2018-05-31T07:06:36.481Z,52.09
2018-05-31T07:07:36.526Z,52.31
2018-05-31T07:08:36.260Z,52.12
2018-05-31T07:09:36.541Z,51.64
2018-05-31T07:10:36.587Z,52.31
2018-05-31T07:11:36.601Z,52.41
2018-05-31T07:12:36.633Z,52.34
2018-05-31T07:13:36.637Z,52.31
2018-05-31T07:14:36.398Z,52.44
2018-05-31T07:15:36.699Z,52.44
2018-05-31T07:16:36.719Z,52.14
2018-05-31T07:17:36.743Z,52.24
2018-05-31T07:18:36.774Z,52.34
2018-05-31T07:19:36.798Z,51.95
2018-05-31T07:20:36.843Z,52.14
2018-05-31T07:21:36.841Z,52.05
2018-05-31T07:22:36.883Z,52.17
2018-05-31T07:23:36.911Z,52.36
2018-05-31T07:24:36.917Z,51.88
2018-05-31T07:25:36.963Z,51.59
2018-05-31T07:26:36.966Z,51.5
2018-05-31T07:27:37.020Z,51.59
2018-05-31T07:28:37.037Z,51.23
2018-05-31T07:29:37.060Z,50.55
2018-05-31T07:30:36.803Z,50.26
2018-05-31T07:31:37.100Z,49.97
2018-05-31T07:32:37.139Z,49.97
2018-05-31T07:33:36.880Z,49.87
2018-05-31T07:34:36.920Z,50.29
2018-05-31T07:35:37.187Z,50.87
2018-05-31T07:36:37.222Z,50.48
2018-05-31T07:37:37.264Z,49.99
2018-05-31T07:38:37.015Z,49.82
2018-05-31T07:39:37.297Z,50.99
2018-05-31T07:40:37.321Z,50.02
2018-05-31T07:41:37.374Z,49.92
2018-05-31T07:42:37.384Z,49.82
2018-05-31T07:43:37.125Z,49.24
2018-05-31T07:44:37.428Z,49.17
2018-05-31T07:45:37.194Z,48.59
2018-05-31T07:46:37.477Z,49.07
2018-05-31T07:47:37.500Z,48.78
2018-05-31T07:48:37.527Z,49
2018-05-31T07:49:37.285Z,48.3
2018-05-31T07:50:37.304Z,48.32
2018-05-31T07:51:37.623Z,49.19
2018-05-31T07:52:37.373Z,48.42
2018-05-31T07:53:37.664Z,48.64
2018-05-31T07:54:37.407Z,48.64
2018-05-31T07:55:37.728Z,48.73
2018-05-31T07:56:37.757Z,48.35
2018-05-31T07:57:37.483Z,48.25
2018-05-31T07:58:37.780Z,47.76
2018-05-31T07:59:37.814Z,47.96
2018-05-31T08:00:37.575Z,47.49
2018-05-31T08:01:37.878Z,47.78
2018-05-31T08:02:37.893Z,47.78
2018-05-31T08:03:37.922Z,47.69
2018-05-31T08:04:37.959Z,47.3
2018-05-31T08:05:37.737Z,47.52
2018-05-31T08:06:37.732Z,46.94
2018-05-31T08:07:38.010Z,46.94
2018-05-31T08:08:38.040Z,46.84
2018-05-31T08:09:38.073Z,46.74
2018-05-31T08:10:38.106Z,46.57
2018-05-31T08:11:38.124Z,46.37
2018-05-31T08:12:38.162Z,46.37
2018-05-31T08:13:38.188Z,46.18
2018-05-31T08:15:38.239Z,45.89
2018-05-31T08:16:38.280Z,45.91
2018-05-31T08:17:38.276Z,45.81
2018-05-31T08:18:38.320Z,45.81
2018-05-31T08:19:38.344Z,45.52
2018-05-31T08:20:38.104Z,45.42
2018-05-31T08:21:38.130Z,45.35
2018-05-31T08:22:38.409Z,45.15
2018-05-31T08:23:38.438Z,45.25
2018-05-31T08:24:38.485Z,44.86
2018-05-31T08:25:38.497Z,44.86
2018-05-31T08:26:38.533Z,44.57
2018-05-31T08:27:38.277Z,44.2
2018-05-31T08:28:38.588Z,44.3
2018-05-31T08:29:38.327Z,44.4
2018-05-31T08:30:38.652Z,44.4
2018-05-31T08:31:38.937Z,44.1
2018-05-31T08:32:38.711Z,43.84
2018-05-31T08:33:38.711Z,44.23
2018-05-31T08:34:38.809Z,43.74
2018-05-31T08:35:38.755Z,43.64
2018-05-31T08:36:38.515Z,43.57
2018-05-31T08:37:38.837Z,43.27
2018-05-31T08:38:38.868Z,43.27
2018-05-31T08:39:38.879Z,43.08
2018-05-31T08:40:38.894Z,43
2018-05-31T08:41:38.947Z,42.8
2018-05-31T08:42:38.686Z,42.8
2018-05-31T08:43:38.975Z,42.51
2018-05-31T08:44:39.028Z,42.24
2018-05-31T08:45:39.070Z,41.95
2018-05-31T08:46:39.067Z,41.85
2018-05-31T08:47:39.087Z,41.77
2018-05-31T08:48:38.857Z,41.67
2018-05-31T08:49:39.144Z,41.58
2018-05-31T08:50:38.912Z,41.48
2018-05-31T08:51:39.202Z,41.09
2018-05-31T08:52:38.975Z,41.02
2018-05-31T08:53:39.252Z,40.63
2018-05-31T08:54:39.031Z,40.92
2018-05-31T08:55:39.330Z,40.23
2018-05-31T08:56:39.359Z,40.06
2018-05-31T08:57:39.370Z,40.45
2018-05-31T08:58:39.395Z,40.06
2018-05-31T08:59:39.419Z,39.76
2018-05-31T09:00:39.467Z,39.76
2018-05-31T09:01:39.213Z,39.67
2018-05-31T09:02:39.260Z,39.59
2018-05-31T09:03:39.551Z,39.69
2018-05-31T09:04:39.637Z,39.39
2018-05-31T09:05:39.611Z,39.29
2018-05-31T09:06:39.628Z,38.92
2018-05-31T09:07:39.657Z,38.92
2018-05-31T09:08:39.683Z,38.92
2018-05-31T09:09:39.704Z,38.92
2018-05-31T09:10:39.748Z,38.16
2018-05-31T09:11:39.510Z,38.55
2018-05-31T09:12:39.809Z,38.26
2018-05-31T09:13:39.839Z,38.26
2018-05-31T09:14:39.901Z,37.96
2018-05-31T09:15:39.609Z,37.59
2018-05-31T09:16:39.643Z,37.49
2018-05-31T09:17:39.951Z,37.39
2018-05-31T09:18:39.713Z,37.59
2018-05-31T09:19:40.020Z,36.92
2018-05-31T09:20:40.048Z,37.12
2018-05-31T09:21:40.059Z,37.02
2018-05-31T09:22:40.101Z,36.04
2018-05-31T09:23:39.851Z,36.24
2018-05-31T09:24:40.159Z,36.25
2018-05-31T09:25:40.170Z,36.35
2018-05-31T09:26:39.934Z,36.55
2018-05-31T09:27:40.230Z,36.16
2018-05-31T09:28:40.361Z,35.86
2018-05-31T09:29:40.288Z,35.78
2018-05-31T09:30:40.338Z,35.49
2018-05-31T09:31:40.082Z,35.19
2018-05-31T09:32:40.378Z,35.29
2018-05-31T09:33:40.404Z,34.92
2018-05-31T09:34:40.439Z,34.81
2018-05-31T09:35:40.471Z,35.02
2018-05-31T09:36:40.233Z,34.15
2018-05-31T09:37:40.538Z,34.25
2018-05-31T09:38:40.558Z,33.95
2018-05-31T09:39:40.594Z,33.95
2018-05-31T09:40:40.623Z,33.65
2018-05-31T09:41:40.645Z,33.48
2018-05-31T09:42:40.676Z,32.98
2018-05-31T09:43:40.704Z,32.98
2018-05-31T09:44:40.760Z,32.79
2018-05-31T09:45:40.793Z,33.2
2018-05-31T09:46:40.846Z,33.2
2018-05-31T09:47:40.852Z,33.1
2018-05-31T09:48:40.864Z,32.81
2018-05-31T09:49:40.886Z,32.62
2018-05-31T09:50:40.972Z,32.53
2018-05-31T09:51:40.954Z,32.43
2018-05-31T09:52:41.009Z,31.94
2018-05-31T09:53:40.760Z,31.76
2018-05-31T09:54:41.062Z,31.56
2018-05-31T09:55:41.108Z,31.36
2018-05-31T09:56:41.116Z,31.36
2018-05-31T09:57:41.141Z,30.97
2018-05-31T09:58:41.178Z,30.77
2018-05-31T09:59:40.934Z,30.88
2018-05-31T10:00:41.228Z,30.98
2018-05-31T10:01:41.268Z,30.98
2018-05-31T10:02:41.305Z,31.18
2018-05-31T10:03:41.051Z,31.18
2018-05-31T10:04:41.356Z,31
2018-05-31T10:05:41.116Z,30.9
2018-05-31T10:06:41.436Z,30.9
2018-05-31T10:07:41.450Z,30.51
2018-05-31T10:08:41.482Z,31
2018-05-31T10:09:41.512Z,30.82
2018-05-31T10:10:41.595Z,30.52
2018-05-31T10:11:41.572Z,30.32
2018-05-31T10:12:41.600Z,30.24
2018-05-31T10:13:41.653Z,30.54
2018-05-31T10:14:41.681Z,30.15
2018-05-31T10:15:41.755Z,29.65
2018-05-31T10:16:41.755Z,29.25
2018-05-31T10:17:41.779Z,29.66
2018-05-31T10:18:41.808Z,29.17
2018-05-31T10:19:41.842Z,29.37
2018-05-31T10:20:41.857Z,28.88
2018-05-31T10:21:41.894Z,29.09
2018-05-31T10:22:41.922Z,28.5
2018-05-31T10:23:41.949Z,28.5
2018-05-31T10:24:41.710Z,29.48
2018-05-31T10:25:41.755Z,29.09
2018-05-31T10:26:42.051Z,28.61
2018-05-31T10:27:42.092Z,28.31
2018-05-31T10:28:42.127Z,28.02
2018-05-31T10:29:42.181Z,28.11
2018-05-31T10:30:41.963Z,28.33
2018-05-31T10:31:42.231Z,28.13
2018-05-31T10:32:42.243Z,28.23
2018-05-31T10:33:42.022Z,27.64
2018-05-31T10:34:42.323Z,27.44
2018-05-31T10:35:42.353Z,27.73
2018-05-31T10:36:42.384Z,27.44
2018-05-31T10:37:42.398Z,27.84
2018-05-31T10:38:42.447Z,27.25
2018-05-31T10:39:42.216Z,27.94
2018-05-31T10:40:42.514Z,27.55
2018-05-31T10:41:42.560Z,27.07
2018-05-31T10:42:42.566Z,27.56
2018-05-31T10:43:42.604Z,27.56
2018-05-31T10:44:42.637Z,26.87
2018-05-31T10:45:42.680Z,26.77
2018-05-31T10:46:42.707Z,26.89
2018-05-31T10:47:42.734Z,26.29
2018-05-31T10:48:42.765Z,26.29
2018-05-31T10:49:42.803Z,26.49
2018-05-31T10:50:42.835Z,26.39
2018-05-31T10:51:42.866Z,26.1
2018-05-31T10:52:42.919Z,26.01
2018-05-31T10:53:42.686Z,25.71
2018-05-31T10:54:42.973Z,25.61
2018-05-31T10:55:43.008Z,25.61
2018-05-31T10:56:43.040Z,25.52
2018-05-31T10:57:43.083Z,25.33
2018-05-31T10:58:42.843Z,24.83
2018-05-31T10:59:42.865Z,24.84
2018-05-31T11:00:43.192Z,24.65
2018-05-31T11:01:43.227Z,24.65
2018-05-31T11:02:43.232Z,24.74
2018-05-31T11:03:43.280Z,24.45
2018-05-31T11:04:43.052Z,24.56
2018-05-31T11:05:43.352Z,24.85
2018-05-31T11:06:43.367Z,24.07
2018-05-31T11:07:43.147Z,23.96
2018-05-31T11:08:43.577Z,24.16
2018-05-31T11:09:43.485Z,23.88
2018-05-31T11:10:43.516Z,23.88
2018-05-31T11:11:43.556Z,24.07
2018-05-31T11:12:43.584Z,24.07
2018-05-31T11:13:43.626Z,23.78
2018-05-31T11:14:43.666Z,23.39
2018-05-31T11:15:43.678Z,23.29
2018-05-31T11:16:43.733Z,23.59
2018-05-31T11:17:43.762Z,23.21
2018-05-31T11:18:43.784Z,23.41
2018-05-31T11:19:43.820Z,23.5
2018-05-31T11:20:43.903Z,22.81
2018-05-31T11:21:44.031Z,22.71
2018-05-31T11:22:43.937Z,22.92
2018-05-31T11:23:43.960Z,22.92
2018-05-31T11:24:44.005Z,22.72
2018-05-31T11:25:44.020Z,22.52
2018-05-31T11:26:44.061Z,22.22
2018-05-31T11:27:44.116Z,21.94
2018-05-31T11:28:44.129Z,21.92
2018-05-31T11:29:44.158Z,22.14
2018-05-31T11:30:44.220Z,21.84
2018-05-31T11:31:43.981Z,22.14
2018-05-31T11:32:44.000Z,21.74
2018-05-31T11:33:44.322Z,22.05
2018-05-31T11:34:44.130Z,21.45
2018-05-31T11:35:44.398Z,21.45
2018-05-31T11:36:44.435Z,21.55
2018-05-31T11:37:44.454Z,21.55
2018-05-31T11:38:44.492Z,21.45
2018-05-31T11:39:44.529Z,21.55
2018-05-31T11:40:44.552Z,20.97
2018-05-31T11:41:44.714Z,21.16
2018-05-31T11:42:44.363Z,21.26
2018-05-31T11:43:44.684Z,20.76
2018-05-31T11:44:44.433Z,20.37
2018-05-31T11:45:44.464Z,20.17
2018-05-31T11:46:44.763Z,20.27
2018-05-31T11:47:44.820Z,20.57
2018-05-31T11:48:44.840Z,20.67
2018-05-31T11:49:44.879Z,20.87
2018-05-31T11:50:44.933Z,20.87
2018-05-31T11:51:44.950Z,20.76
2018-05-31T11:52:45.007Z,20.67
2018-05-31T11:53:45.032Z,20.57
2018-05-31T11:54:45.061Z,20.97
2018-05-31T11:55:45.081Z,20.87
2018-05-31T11:56:45.156Z,20.97
2018-05-31T11:57:45.174Z,20.97
2018-05-31T11:58:45.195Z,20.68
2018-05-31T11:59:45.251Z,20.68
2018-05-31T12:00:45.292Z,20.68
2018-05-31T12:01:45.543Z,20.87
2018-05-31T12:02:45.350Z,20.39
2018-05-31T12:03:45.458Z,20.68
2018-05-31T12:04:45.427Z,20.29
2018-05-31T12:05:45.462Z,20.09
2018-05-31T12:06:45.481Z,20
2018-05-31T12:07:45.536Z,19.9
2018-05-31T12:08:45.560Z,19.9
2018-05-31T12:09:45.616Z,20.1
2018-05-31T12:10:45.730Z,19.9
2018-05-31T12:11:45.690Z,19.81
2018-05-31T12:12:45.707Z,19.81
2018-05-31T12:13:45.480Z,20.21
2018-05-31T12:14:45.509Z,19.62
2018-05-31T12:15:45.827Z,19.42
2018-05-31T12:16:45.865Z,19.32
2018-05-31T12:17:45.880Z,19.02
2018-05-31T12:18:45.950Z,18.92
2018-05-31T12:19:45.975Z,18.52
2018-05-31T12:20:45.999Z,18.73
2018-05-31T12:21:46.046Z,18.82
2018-05-31T12:22:46.071Z,18.62
2018-05-31T12:23:45.839Z,18.71
2018-05-31T12:24:46.156Z,18.62
2018-05-31T12:25:46.200Z,18.41
2018-05-31T12:26:45.945Z,18.62
2018-05-31T12:27:45.989Z,18.6
2018-05-31T12:28:46.291Z,18.71
2018-05-31T12:29:46.327Z,18.71
2018-05-31T12:30:46.371Z,19.01
2018-05-31T12:31:46.411Z,18.99
2018-05-31T12:32:46.451Z,19.1
2018-05-31T12:33:46.473Z,19.2
2018-05-31T12:34:46.515Z,19.39
2018-05-31T12:35:46.554Z,19.1
2018-05-31T12:36:46.310Z,19.29
2018-05-31T12:37:46.680Z,19.58
2018-05-31T12:38:46.390Z,19.48
2018-05-31T12:39:46.717Z,19.58
2018-05-31T12:40:46.752Z,19.58
2018-05-31T12:41:46.783Z,19.18
2018-05-31T12:42:46.530Z,19.29
2018-05-31T12:43:46.858Z,19.18
2018-05-31T12:44:46.901Z,19.1
2018-05-31T12:45:46.653Z,19.79
2018-05-31T12:46:46.957Z,19.31
2018-05-31T12:47:46.999Z,18.9
2018-05-31T12:48:46.749Z,19.1
2018-05-31T12:49:46.806Z,19.1
2018-05-31T12:50:47.102Z,18.99
2018-05-31T12:51:46.874Z,18.6
2018-05-31T12:52:47.190Z,18.4
2018-05-31T12:53:47.378Z,19.2
2018-05-31T12:54:47.244Z,19.29
2018-05-31T12:55:47.282Z,19.39
2018-05-31T12:56:47.323Z,19.1